Time;durP1;ratioP1;P1;durP2;ratioP2;P2;SDS_P1;SDS_P2;PMS_P1;PMS_P2;Temp;Humidity;BMP_temperature;BMP_pressure;BME280_temperature;BME280_humidity;BME280_pressure;Samples;Min_cycle;Max_cycle;Signal;HPM_P1;HPM_P2
2022/01/25 00:09:17;;;;;;;0.50;0.50;;;5.70;99.90;;;;;;4442048;32;20165;-66
2022/01/25 00:10:15;;;;;;;0.50;0.50;;;5.60;99.90;;;;;;4441237;32;20110;-67
2022/01/25 00:24:50;;;;;;;1.35;0.90;;;5.60;99.90;;;;;;4437624;32;20066;-66
2022/01/25 00:28:50;;;;;;;0.73;0.52;;;5.50;99.90;;;;;;4439912;32;20127;-66
2022/01/25 00:31:17;;;;;;;1.75;0.95;;;5.60;99.90;;;;;;4441239;32;20136;-66
2022/01/25 00:33:47;;;;;;;0.80;0.80;;;5.60;99.90;;;;;;4441934;32;20065;-66
2022/01/25 00:36:16;;;;;;;4.43;1.02;;;5.60;99.90;;;;;;4440478;32;20525;-66
2022/01/25 00:38:43;;;;;;;2.90;1.67;;;5.60;99.90;;;;;;4441165;32;20062;-66
2022/01/25 00:41:08;;;;;;;0.70;0.70;;;5.50;99.90;;;;;;4442221;32;20089;-67
2022/01/25 00:43:34;;;;;;;0.50;0.50;;;5.50;99.90;;;;;;4442118;32;20076;-66
2022/01/25 00:46:05;;;;;;;0.47;0.47;;;5.50;99.90;;;;;;4442134;32;20085;-66
2022/01/25 00:48:43;;;;;;;;;;;5.40;99.90;;;;;;4441094;32;20128;-66
2022/01/25 00:51:57;;;;;;;0.77;0.77;;;5.40;99.90;;;;;;4440100;32;19956;-66
2022/01/25 00:54:14;;;;;;;3.15;1.50;;;5.40;99.90;;;;;;4425485;32;20097;-67
2022/01/25 00:56:44;;;;;;;1.30;0.70;;;5.50;99.90;;;;;;4440535;32;20069;-67
2022/01/25 00:59:18;;;;;;;1.20;1.10;;;5.50;99.90;;;;;;4439919;32;20086;-67
2022/01/25 01:01:45;;;;;;;1.05;0.95;;;5.40;99.90;;;;;;4439597;32;20089;-66
2022/01/25 01:04:10;;;;;;;1.40;1.10;;;5.30;99.90;;;;;;4439530;32;20072;-67
2022/01/25 01:06:37;;;;;;;0.60;0.60;;;5.40;99.90;;;;;;4441386;32;20085;-66
2022/01/25 01:09:07;;;;;;;0.82;0.80;;;5.30;99.90;;;;;;4438113;32;20115;-66
2022/01/25 01:11:39;;;;;;;1.17;0.85;;;5.30;99.90;;;;;;4442748;32;20069;-67
2022/01/25 01:14:37;;;;;;;1.95;0.88;;;5.30;99.90;;;;;;4440653;32;20146;-66
2022/01/25 01:17:13;;;;;;;2.33;1.15;;;5.40;99.90;;;;;;4439878;32;20524;-66
2022/01/25 01:30:58;;;;;;;1.25;0.95;;;5.30;99.90;;;;;;4436744;32;20065;-67
2022/01/25 01:34:18;;;;;;;0.37;0.37;;;5.30;99.90;;;;;;4441204;32;20093;-67
2022/01/25 01:36:53;;;;;;;2.20;0.98;;;5.30;99.90;;;;;;4439415;32;20522;-66
2022/01/25 01:39:22;;;;;;;0.47;0.47;;;5.30;99.90;;;;;;4438662;32;20120;-66
2022/01/25 01:42:33;;;;;;;0.40;0.40;;;5.30;99.90;;;;;;4429607;32;20144;-67
2022/01/25 01:44:38;;;;;;;1.02;0.90;;;5.40;99.90;;;;;;4437690;32;20606;-67
2022/01/25 01:47:09;;;;;;;0.50;0.50;;;5.40;99.90;;;;;;4441672;32;20635;-67
2022/01/25 01:49:41;;;;;;;0.50;0.50;;;5.40;99.90;;;;;;4439599;32;20083;-66
2022/01/25 01:52:07;;;;;;;1.80;0.70;;;5.40;99.90;;;;;;4441434;32;20558;-66
2022/01/25 01:54:33;;;;;;;0.70;0.70;;;5.40;99.90;;;;;;4440376;32;20072;-66
2022/01/25 01:56:58;;;;;;;2.67;0.90;;;5.40;99.90;;;;;;4441661;32;20517;-66
2022/01/25 01:59:24;;;;;;;1.48;1.10;;;5.40;99.90;;;;;;4440953;32;20092;-66
2022/01/25 02:01:49;;;;;;;3.58;1.23;;;5.40;99.90;;;;;;4439533;32;20465;-66
2022/01/25 02:04:17;;;;;;;0.80;0.77;;;5.30;99.90;;;;;;4441975;32;20497;-66
2022/01/25 02:06:43;;;;;;;2.83;1.20;;;5.40;99.90;;;;;;4442667;32;20089;-66
2022/01/25 02:09:10;;;;;;;0.60;0.60;;;5.40;99.90;;;;;;4439104;32;20084;-66
2022/01/25 02:11:36;;;;;;;0.75;0.75;;;5.30;99.90;;;;;;4438099;32;20120;-66
2022/01/25 02:14:06;;;;;;;2.12;0.73;;;5.40;99.90;;;;;;4439704;32;20176;-66
2022/01/25 02:16:44;;;;;;;0.70;0.70;;;5.40;99.90;;;;;;4441692;32;20073;-66
2022/01/25 02:22:33;;;;;;;6.37;2.30;;;5.30;99.90;;;;;;4427840;32;20085;-66
2022/01/25 02:24:43;;;;;;;13.35;0.85;;;5.40;99.90;;;;;;4451882;32;20061;-67
2022/01/25 02:27:09;;;;;;;0.77;0.70;;;5.40;99.90;;;;;;4444791;32;20104;-66
2022/01/25 02:29:35;;;;;;;0.62;0.62;;;5.40;99.90;;;;;;4443055;32;20131;-66
2022/01/25 02:32:01;;;;;;;0.85;0.85;;;5.50;99.90;;;;;;4442437;32;20048;-66
2022/01/25 02:34:27;;;;;;;0.73;0.62;;;5.40;99.90;;;;;;4444855;32;20085;-66
2022/01/25 02:36:58;;;;;;;4.97;1.12;;;5.40;99.90;;;;;;4442595;32;20081;-66
2022/01/25 02:39:24;;;;;;;0.50;0.50;;;5.40;99.90;;;;;;4443035;32;20564;-66
2022/01/25 02:41:52;;;;;;;3.20;0.52;;;5.30;99.90;;;;;;4445177;32;20053;-66
2022/01/25 02:44:24;;;;;;;0.95;0.65;;;5.30;99.90;;;;;;4444556;32;20081;-66
2022/01/25 02:49:17;;;;;;;1.48;0.68;;;5.30;99.90;;;;;;4440112;32;20056;-66
2022/01/25 02:51:47;;;;;;;5.55;1.23;;;5.30;99.90;;;;;;4442798;32;20162;-67
2022/01/25 02:54:14;;;;;;;5.18;1.83;;;5.30;99.90;;;;;;4442360;32;20451;-67
2022/01/25 02:56:42;;;;;;;1.20;0.90;;;5.30;99.90;;;;;;4442158;32;20065;-67
2022/01/25 02:59:09;;;;;;;2.08;0.62;;;5.30;99.90;;;;;;4442542;32;20118;-67
2022/01/25 03:01:36;;;;;;;1.85;1.12;;;5.30;99.90;;;;;;4440990;32;20596;-67
2022/01/25 03:04:03;;;;;;;1.35;1.00;;;5.30;99.90;;;;;;4441963;32;20057;-66
2022/01/25 03:06:29;;;;;;;0.40;0.40;;;5.30;99.90;;;;;;4441161;32;20155;-67
2022/01/25 03:08:55;;;;;;;1.48;0.82;;;5.30;99.90;;;;;;4442487;32;20136;-67
2022/01/25 03:11:23;;;;;;;9.35;1.30;;;5.30;99.90;;;;;;4444385;32;20391;-67
2022/01/25 03:13:51;;;;;;;3.17;1.45;;;5.10;99.90;;;;;;4442283;32;20431;-67
2022/01/25 03:16:34;;;;;;;3.12;1.10;;;5.20;99.90;;;;;;4444640;32;20053;-66
2022/01/25 03:19:03;;;;;;;1.55;1.12;;;5.20;99.90;;;;;;4442147;32;20105;-67
2022/01/25 03:23:58;;;;;;;3.03;1.55;;;5.20;99.90;;;;;;4440854;32;20129;-67
2022/01/25 03:26:25;;;;;;;0.75;0.75;;;5.10;99.90;;;;;;4442013;32;20087;-66
2022/01/25 03:28:51;;;;;;;1.15;1.02;;;5.10;99.90;;;;;;4441908;32;20112;-67
2022/01/25 03:31:17;;;;;;;2.10;1.52;;;5.10;99.90;;;;;;4442190;32;20537;-67
2022/01/25 03:33:43;;;;;;;1.00;1.00;;;5.00;99.90;;;;;;4441352;32;20097;-67
2022/01/25 03:36:09;;;;;;;6.62;1.33;;;5.10;99.90;;;;;;4442326;32;20077;-67
2022/01/25 03:38:37;;;;;;;1.05;0.85;;;5.10;99.90;;;;;;4444141;32;20533;-67
2022/01/25 03:41:05;;;;;;;3.10;1.27;;;5.00;99.90;;;;;;4441340;32;20074;-67
2022/01/25 03:43:31;;;;;;;2.78;1.35;;;4.90;99.90;;;;;;4443146;32;20100;-67
2022/01/25 03:46:01;;;;;;;2.80;1.42;;;4.90;99.90;;;;;;4442239;32;20615;-67
2022/01/25 03:50:53;;;;;;;2.12;1.37;;;4.90;99.90;;;;;;4441288;32;20056;-67
2022/01/25 03:53:20;;;;;;;1.77;0.73;;;4.90;99.90;;;;;;4442567;32;20155;-67
2022/01/25 03:55:47;;;;;;;2.95;1.85;;;4.90;99.90;;;;;;4443459;32;20065;-67
2022/01/25 03:58:13;;;;;;;2.15;0.90;;;4.90;99.90;;;;;;4439494;32;20165;-67
2022/01/25 04:00:40;;;;;;;2.05;1.37;;;4.80;99.90;;;;;;4441004;32;20069;-67
2022/01/25 04:03:13;;;;;;;2.10;1.23;;;4.80;99.90;;;;;;4442964;32;20061;-67
2022/01/25 04:08:10;;;;;;;2.05;1.10;;;4.80;99.90;;;;;;4440582;32;20180;-67
2022/01/25 04:10:37;;;;;;;1.73;1.55;;;4.80;99.90;;;;;;4442703;32;20537;-67
2022/01/25 04:13:04;;;;;;;0.93;0.93;;;4.90;99.90;;;;;;4443071;32;20142;-67
2022/01/25 04:15:29;;;;;;;7.87;1.35;;;4.80;99.90;;;;;;4443633;32;20065;-67
2022/01/25 04:18:03;;;;;;;1.55;1.02;;;4.70;99.90;;;;;;4443587;32;20153;-67
2022/01/25 04:20:33;;;;;;;1.42;1.33;;;4.80;99.90;;;;;;4441807;32;20077;-67
2022/01/25 04:25:07;;;;;;;;;;;4.70;99.90;;;;;;4442648;32;20081;-67
2022/01/25 04:25:44;;;;;;;6.03;0.95;;;4.80;99.90;;;;;;4439660;32;19999;-67
2022/01/25 04:28:10;;;;;;;0.95;0.80;;;4.70;99.90;;;;;;4439812;32;20557;-67
2022/01/25 04:30:35;;;;;;;2.42;0.73;;;4.60;99.90;;;;;;4441716;32;20156;-67
2022/01/25 04:33:05;;;;;;;0.55;0.55;;;4.60;99.90;;;;;;4439890;32;86374;-67
2022/01/25 04:49:16;;;;;;;2.12;1.23;;;4.50;99.90;;;;;;4441282;32;20104;-67
2022/01/25 04:51:50;;;;;;;2.85;1.50;;;4.50;99.90;;;;;;4441990;32;20060;-67
2022/01/25 04:54:36;;;;;;;1.35;1.25;;;4.50;99.90;;;;;;4440366;32;20089;-67
2022/01/25 04:57:21;;;;;;;4.43;2.55;;;4.50;99.90;;;;;;4440650;32;20073;-67
2022/01/25 05:02:28;;;;;;;3.55;1.10;;;4.60;99.90;;;;;;4442251;32;20136;-67
2022/01/25 05:05:01;;;;;;;1.75;1.15;;;4.50;99.90;;;;;;4441839;32;20137;-67
2022/01/25 05:09:54;;;;;;;3.42;1.85;;;4.50;99.90;;;;;;4440610;32;20582;-67
2022/01/25 05:12:31;;;;;;;1.70;0.93;;;4.60;99.90;;;;;;4443137;32;20089;-67
2022/01/25 05:15:01;;;;;;;2.78;1.75;;;4.50;99.90;;;;;;4443191;32;20240;-66
2022/01/25 05:17:37;;;;;;;0.98;0.82;;;4.60;99.90;;;;;;4441385;32;20101;-66
2022/01/25 05:22:18;;;;;;;2.08;1.05;;;4.50;99.90;;;;;;4442020;32;20085;-66
2022/01/25 05:22:50;;;;;;;0.50;0.50;;;4.50;99.90;;;;;;4431284;32;20061;-66
2022/01/25 05:25:16;;;;;;;1.27;1.15;;;4.60;99.90;;;;;;4439777;32;20112;-66
2022/01/25 05:27:41;;;;;;;0.68;0.68;;;4.60;99.90;;;;;;4441360;32;20514;-66
2022/01/25 05:30:08;;;;;;;0.57;0.57;;;4.60;99.90;;;;;;4441206;32;20065;-66
2022/01/25 05:32:34;;;;;;;0.98;0.88;;;4.60;99.90;;;;;;4440817;32;20089;-66
2022/01/25 05:35:01;;;;;;;2.55;1.02;;;4.50;99.90;;;;;;4441926;32;20065;-66
2022/01/25 05:37:26;;;;;;;2.83;1.12;;;4.40;99.90;;;;;;4443254;32;20533;-66
2022/01/25 05:39:52;;;;;;;0.93;0.93;;;4.50;99.90;;;;;;4439441;32;20057;-66
2022/01/25 05:42:32;;;;;;;1.48;1.12;;;4.50;99.90;;;;;;4441219;32;20069;-66
2022/01/25 05:45:11;;;;;;;0.98;0.75;;;4.60;99.90;;;;;;4442512;32;20088;-66
2022/01/25 05:47:37;;;;;;;0.40;0.40;;;4.60;99.90;;;;;;4439964;32;20064;-66
2022/01/25 05:50:03;;;;;;;2.78;1.37;;;4.60;99.90;;;;;;4441187;32;20114;-66
2022/01/25 05:52:29;;;;;;;2.90;1.37;;;4.60;99.90;;;;;;4441771;32;20057;-66
2022/01/25 05:54:56;;;;;;;5.07;1.45;;;4.60;99.90;;;;;;4436682;32;20132;-67
2022/01/25 05:57:22;;;;;;;0.98;0.85;;;4.70;99.90;;;;;;4438985;32;20131;-66
2022/01/25 05:59:47;;;;;;;0.50;0.50;;;4.70;99.90;;;;;;4437871;32;20194;-65
2022/01/25 06:02:18;;;;;;;2.15;1.17;;;4.70;99.90;;;;;;4430125;32;20049;-67
2022/01/25 06:04:45;;;;;;;5.05;1.02;;;4.60;99.90;;;;;;4431464;32;20099;-67
2022/01/25 06:07:10;;;;;;;10.85;1.20;;;4.60;99.90;;;;;;4437963;32;20089;-67
2022/01/25 06:09:36;;;;;;;1.30;1.02;;;4.60;99.90;;;;;;4438940;32;20080;-67
2022/01/25 06:12:02;;;;;;;0.60;0.60;;;4.60;99.90;;;;;;4436357;32;20109;-67
2022/01/25 06:14:27;;;;;;;1.30;1.15;;;4.60;99.90;;;;;;4440048;32;20073;-67
2022/01/25 06:16:54;;;;;;;0.73;0.73;;;4.50;99.90;;;;;;4431781;32;20193;-67
2022/01/25 06:19:19;;;;;;;2.10;1.20;;;4.40;99.90;;;;;;4430854;32;20068;-67
2022/01/25 06:21:45;;;;;;;2.30;1.23;;;4.40;99.90;;;;;;4437961;32;20065;-67
2022/01/25 06:24:10;;;;;;;0.70;0.70;;;4.40;99.90;;;;;;4438811;32;20167;-67
2022/01/25 06:26:36;;;;;;;1.00;1.00;;;4.40;99.90;;;;;;4426185;32;20482;-66
2022/01/25 06:29:03;;;;;;;4.18;1.87;;;4.40;99.90;;;;;;4432931;32;20891;-67
2022/01/25 06:31:31;;;;;;;0.80;0.80;;;4.40;99.90;;;;;;4414161;32;20596;-67
2022/01/25 06:33:56;;;;;;;2.60;1.27;;;4.40;99.90;;;;;;4434773;32;20521;-67
2022/01/25 06:36:22;;;;;;;3.00;1.52;;;4.50;99.90;;;;;;4435103;32;20120;-66
2022/01/25 06:38:48;;;;;;;0.82;0.82;;;4.50;99.90;;;;;;4424718;32;20112;-67
2022/01/25 06:41:16;;;;;;;0.73;0.73;;;4.60;99.90;;;;;;4434651;32;20101;-68
2022/01/25 06:43:42;;;;;;;5.28;1.25;;;4.70;99.90;;;;;;4428783;32;20411;-67
2022/01/25 06:46:07;;;;;;;1.65;1.50;;;4.70;99.90;;;;;;4429811;32;20100;-66
2022/01/25 06:48:33;;;;;;;0.77;0.62;;;4.60;99.90;;;;;;4435178;32;20739;-66
2022/01/25 06:50:59;;;;;;;2.40;1.15;;;4.60;99.90;;;;;;4427730;32;20285;-66
2022/01/25 06:53:25;;;;;;;0.88;0.82;;;4.60;99.90;;;;;;4431562;32;20628;-66
2022/01/25 06:55:50;;;;;;;4.55;1.90;;;4.60;99.90;;;;;;4428848;32;20532;-66
2022/01/25 06:58:16;;;;;;;2.83;2.12;;;4.60;99.90;;;;;;4426525;32;20073;-68
2022/01/25 07:00:42;;;;;;;4.85;2.10;;;4.60;99.90;;;;;;4417134;32;20073;-66
2022/01/25 07:03:07;;;;;;;5.50;2.28;;;4.60;99.90;;;;;;4416037;32;20137;-67
2022/01/25 07:05:33;;;;;;;4.45;1.42;;;4.60;99.90;;;;;;4423083;32;20068;-66
2022/01/25 07:07:59;;;;;;;1.00;0.70;;;4.60;99.90;;;;;;4425164;32;20077;-67
2022/01/25 07:10:25;;;;;;;1.48;1.12;;;4.60;99.90;;;;;;4425383;32;20199;-68
2022/01/25 07:12:50;;;;;;;1.50;1.40;;;4.40;99.90;;;;;;4421128;32;20625;-68
2022/01/25 07:15:17;;;;;;;3.62;1.35;;;4.40;99.90;;;;;;4418117;32;20084;-66
2022/01/25 07:17:43;;;;;;;6.22;2.95;;;4.40;99.90;;;;;;4408148;32;20630;-66
2022/01/25 07:20:09;;;;;;;1.52;1.08;;;4.30;99.90;;;;;;4419929;32;20088;-66
2022/01/25 07:22:37;;;;;;;1.90;1.35;;;4.30;99.90;;;;;;4409691;32;20084;-66
2022/01/25 07:25:05;;;;;;;0.68;0.68;;;4.40;99.90;;;;;;4426618;32;20072;-66
2022/01/25 07:27:30;;;;;;;0.90;0.82;;;4.40;99.90;;;;;;4422789;32;20151;-67
2022/01/25 07:29:56;;;;;;;3.20;1.50;;;4.50;99.90;;;;;;4431197;32;20073;-66
2022/01/25 07:32:21;;;;;;;1.05;1.05;;;4.60;99.90;;;;;;4429005;32;20097;-66
2022/01/25 07:34:47;;;;;;;0.95;0.82;;;4.50;99.90;;;;;;4428602;32;20082;-67
2022/01/25 07:37:12;;;;;;;1.58;1.35;;;4.50;99.90;;;;;;4427264;32;20072;-66
2022/01/25 07:39:38;;;;;;;2.30;1.77;;;4.40;99.90;;;;;;4431009;32;20061;-66
2022/01/25 07:42:04;;;;;;;1.65;1.20;;;4.40;99.90;;;;;;4431218;32;20076;-66
2022/01/25 07:44:32;;;;;;;1.30;1.20;;;4.40;99.90;;;;;;4431240;32;20089;-66
2022/01/25 07:47:00;;;;;;;0.60;0.60;;;4.40;99.90;;;;;;4428988;32;20564;-66
2022/01/25 07:49:27;;;;;;;2.75;1.58;;;4.40;99.90;;;;;;4424892;32;20100;-66
2022/01/25 07:51:53;;;;;;;2.42;1.15;;;4.40;99.90;;;;;;4431065;32;20112;-66
2022/01/25 07:54:20;;;;;;;0.75;0.75;;;4.40;99.90;;;;;;4425438;32;20085;-67
2022/01/25 07:56:46;;;;;;;1.85;0.90;;;4.40;99.90;;;;;;4427915;32;20065;-67
2022/01/25 07:59:12;;;;;;;2.00;1.12;;;4.40;99.90;;;;;;4426739;32;20092;-66
2022/01/25 08:01:38;;;;;;;0.85;0.80;;;4.30;99.90;;;;;;4426951;32;20076;-66
2022/01/25 08:04:03;;;;;;;6.78;1.58;;;4.40;99.90;;;;;;4431283;32;20131;-67
2022/01/25 08:06:29;;;;;;;4.15;1.87;;;4.40;99.90;;;;;;4431402;32;20536;-66
2022/01/25 08:08:54;;;;;;;1.62;1.25;;;4.50;99.90;;;;;;4429027;32;20133;-66
2022/01/25 08:11:20;;;;;;;3.00;2.35;;;4.50;99.90;;;;;;4431099;32;20073;-67
2022/01/25 08:13:49;;;;;;;10.60;2.78;;;4.50;99.90;;;;;;4426023;32;20080;-66
2022/01/25 08:16:16;;;;;;;2.25;1.05;;;4.50;99.90;;;;;;4425137;32;20556;-66
2022/01/25 08:18:41;;;;;;;11.88;3.45;;;4.40;99.90;;;;;;4428014;32;20093;-67
2022/01/25 08:21:07;;;;;;;5.87;1.50;;;4.30;99.90;;;;;;4432635;32;20080;-66
2022/01/25 08:23:33;;;;;;;2.00;1.23;;;4.40;99.90;;;;;;4428432;32;20085;-66
2022/01/25 08:25:58;;;;;;;1.48;1.37;;;4.40;99.90;;;;;;4434373;32;20088;-66
2022/01/25 08:28:23;;;;;;;1.65;1.02;;;4.50;99.90;;;;;;4431826;32;20521;-68
2022/01/25 08:30:49;;;;;;;0.93;0.85;;;4.50;99.90;;;;;;4429344;32;20084;-67
2022/01/25 08:33:16;;;;;;;3.00;1.75;;;4.50;99.90;;;;;;4428559;32;20089;-66
2022/01/25 08:35:42;;;;;;;0.80;0.80;;;4.60;99.90;;;;;;4422889;32;20194;-67
2022/01/25 08:38:07;;;;;;;1.27;1.17;;;4.60;99.90;;;;;;4426671;32;20501;-66
2022/01/25 08:40:34;;;;;;;1.00;1.00;;;4.50;99.90;;;;;;4432103;32;20105;-66
2022/01/25 08:43:00;;;;;;;2.55;1.30;;;4.50;99.90;;;;;;4422835;32;20113;-65
2022/01/25 08:45:29;;;;;;;1.00;1.00;;;4.60;99.90;;;;;;4428651;32;20107;-66
2022/01/25 08:47:54;;;;;;;2.15;1.48;;;4.60;99.90;;;;;;4426680;32;20081;-65
2022/01/25 08:50:20;;;;;;;3.08;1.90;;;4.60;99.90;;;;;;4410513;32;20293;-64
2022/01/25 08:52:46;;;;;;;14.25;1.17;;;4.60;99.90;;;;;;4423551;32;20105;-67
2022/01/25 08:55:14;;;;;;;1.70;0.80;;;4.70;99.90;;;;;;4419550;32;20068;-65
2022/01/25 08:57:39;;;;;;;5.68;1.45;;;4.70;99.90;;;;;;4422779;32;20637;-66
2022/01/25 09:00:09;;;;;;;2.72;1.35;;;4.70;99.90;;;;;;4417551;32;20092;-66
2022/01/25 09:02:35;;;;;;;1.63;1.53;;;4.70;99.90;;;;;;4418907;32;20245;-66
2022/01/25 09:05:00;;;;;;;7.82;1.80;;;4.70;99.90;;;;;;4417443;32;20835;-67
2022/01/25 09:07:25;;;;;;;0.75;0.75;;;4.80;99.90;;;;;;4412867;32;20650;-66
2022/01/25 09:09:51;;;;;;;10.98;1.17;;;4.80;99.90;;;;;;4419712;32;20671;-66
2022/01/25 09:12:16;;;;;;;3.17;1.27;;;4.70;99.90;;;;;;4416040;32;20581;-66
2022/01/25 09:14:43;;;;;;;1.33;1.23;;;4.80;99.90;;;;;;4418237;32;20057;-67
2022/01/25 09:17:10;;;;;;;3.53;2.28;;;5.00;99.90;;;;;;4419192;32;20157;-66
2022/01/25 09:19:38;;;;;;;6.37;1.08;;;5.00;99.90;;;;;;4422170;32;20504;-67
2022/01/25 09:22:04;;;;;;;1.90;1.50;;;4.90;99.90;;;;;;4422169;32;20095;-67
2022/01/25 09:24:30;;;;;;;3.42;1.55;;;4.90;99.90;;;;;;4417322;32;20077;-67
2022/01/25 09:26:55;;;;;;;1.02;0.75;;;4.90;99.90;;;;;;4421445;32;20378;-67
2022/01/25 09:29:21;;;;;;;3.53;1.67;;;4.80;99.90;;;;;;4420986;32;20204;-67
2022/01/25 09:31:46;;;;;;;1.42;1.33;;;4.80;99.90;;;;;;4421958;32;20093;-67
2022/01/25 09:34:12;;;;;;;5.20;2.10;;;4.80;99.90;;;;;;4417069;32;20085;-67
2022/01/25 09:36:37;;;;;;;0.80;0.80;;;4.80;99.90;;;;;;4416685;32;20184;-67
2022/01/25 09:39:03;;;;;;;1.92;1.23;;;4.70;99.90;;;;;;4420933;32;20110;-67
2022/01/25 09:41:29;;;;;;;1.45;1.02;;;4.70;99.90;;;;;;4416241;32;20146;-66
2022/01/25 09:43:55;;;;;;;1.58;1.30;;;4.80;99.90;;;;;;4419803;32;20475;-66
2022/01/25 09:46:21;;;;;;;0.68;0.68;;;4.80;99.90;;;;;;4419690;32;20246;-66
2022/01/25 09:48:47;;;;;;;1.00;1.00;;;4.90;99.90;;;;;;4419877;32;20126;-66
2022/01/25 09:51:13;;;;;;;1.95;1.55;;;5.10;99.90;;;;;;4416901;32;20104;-67
2022/01/25 09:53:40;;;;;;;4.78;1.20;;;5.10;99.90;;;;;;4419031;32;20057;-67
2022/01/25 09:56:07;;;;;;;0.70;0.70;;;5.10;99.90;;;;;;4420083;32;20677;-66
2022/01/25 09:58:32;;;;;;;1.55;0.88;;;5.10;99.90;;;;;;4417276;32;20104;-66
2022/01/25 10:01:01;;;;;;;1.35;1.15;;;5.10;99.90;;;;;;4410818;32;20085;-66
2022/01/25 10:03:32;;;;;;;1.27;1.17;;;5.20;99.90;;;;;;4421400;32;20157;-66
2022/01/25 10:06:01;;;;;;;1.52;1.20;;;5.10;99.90;;;;;;4414584;32;20513;-66
2022/01/25 10:08:35;;;;;;;3.40;1.12;;;5.20;99.90;;;;;;4416199;32;20591;-66
2022/01/25 10:11:06;;;;;;;2.33;1.50;;;5.10;99.90;;;;;;4412478;32;20100;-66
2022/01/25 10:13:35;;;;;;;2.50;0.77;;;5.10;99.90;;;;;;4420177;32;20140;-66
2022/01/25 10:16:06;;;;;;;6.07;1.17;;;5.10;99.90;;;;;;4411796;32;20190;-66
2022/01/25 10:18:53;;;;;;;1.42;1.10;;;5.20;99.90;;;;;;4412682;32;20116;-66
2022/01/25 10:21:37;;;;;;;2.37;1.62;;;5.20;99.90;;;;;;4412670;32;20201;-65
2022/01/25 10:24:12;;;;;;;4.97;1.37;;;5.30;99.90;;;;;;4411558;32;20573;-66
2022/01/25 10:26:41;;;;;;;0.73;0.73;;;5.30;99.90;;;;;;4411668;32;20203;-65
2022/01/25 10:29:09;;;;;;;0.77;0.77;;;5.20;99.90;;;;;;4412570;32;20077;-66
2022/01/25 10:31:44;;;;;;;2.35;1.08;;;5.20;99.90;;;;;;4411859;32;20180;-66
2022/01/25 10:34:12;;;;;;;0.40;0.40;;;5.20;99.90;;;;;;4414548;32;20632;-66
2022/01/25 10:36:44;;;;;;;2.85;0.85;;;5.30;99.90;;;;;;4408043;32;20272;-65
2022/01/25 10:39:09;;;;;;;6.12;2.08;;;5.30;99.90;;;;;;4411476;32;20161;-66
2022/01/25 10:41:35;;;;;;;0.88;0.85;;;5.30;99.90;;;;;;4406803;32;20415;-66
2022/01/25 10:44:01;;;;;;;1.73;1.42;;;5.20;99.90;;;;;;4417747;32;20100;-66
2022/01/25 10:46:30;;;;;;;4.57;2.42;;;5.20;99.90;;;;;;4422712;32;20088;-66
2022/01/25 10:49:00;;;;;;;1.05;0.98;;;5.00;99.90;;;;;;4413295;32;20432;-66
2022/01/25 10:51:30;;;;;;;5.70;3.08;;;4.90;99.90;;;;;;4422691;32;20088;-66
2022/01/25 10:54:03;;;;;;;0.55;0.55;;;5.10;99.90;;;;;;4418730;32;20069;-67
2022/01/25 10:56:40;;;;;;;8.80;1.45;;;5.30;99.90;;;;;;4419376;32;20124;-66
2022/01/25 10:59:08;;;;;;;1.67;1.33;;;5.30;99.90;;;;;;4429178;32;20073;-67
2022/01/25 11:01:37;;;;;;;1.95;0.82;;;5.40;99.90;;;;;;4429730;32;20085;-66
2022/01/25 11:04:09;;;;;;;1.15;1.05;;;5.40;99.90;;;;;;4431241;32;20061;-66
2022/01/25 11:06:35;;;;;;;1.87;1.15;;;5.40;99.90;;;;;;4425290;32;20109;-66
2022/01/25 11:09:05;;;;;;;1.25;1.15;;;5.40;99.90;;;;;;4428476;32;20336;-66
2022/01/25 11:11:38;;;;;;;1.65;1.02;;;5.40;99.90;;;;;;4424254;32;20117;-67
2022/01/25 11:14:50;;;;;;;1.12;0.68;;;5.30;99.90;;;;;;4413591;32;20600;-66
2022/01/25 11:16:52;;;;;;;5.15;1.23;;;5.30;99.90;;;;;;4414427;32;20640;-65
2022/01/25 11:19:18;;;;;;;1.75;1.15;;;5.30;99.90;;;;;;4426676;32;20128;-67
2022/01/25 11:21:45;;;;;;;2.33;1.15;;;5.40;99.90;;;;;;4425349;32;20283;-66
2022/01/25 11:24:15;;;;;;;2.15;1.20;;;5.60;99.90;;;;;;4417202;32;20065;-66
2022/01/25 11:26:42;;;;;;;3.30;1.33;;;5.60;99.90;;;;;;4418210;32;20108;-66
2022/01/25 11:29:08;;;;;;;2.60;1.20;;;5.60;99.90;;;;;;4432029;32;20100;-65
2022/01/25 11:31:36;;;;;;;4.22;0.88;;;5.60;99.90;;;;;;4431368;32;20563;-65
2022/01/25 11:34:05;;;;;;;0.70;0.65;;;5.60;99.90;;;;;;4429381;32;20065;-65
2022/01/25 11:36:32;;;;;;;0.50;0.50;;;5.60;99.90;;;;;;4430799;32;20929;-66
2022/01/25 11:38:57;;;;;;;4.47;1.27;;;5.60;99.90;;;;;;4432685;32;20069;-65
2022/01/25 11:41:25;;;;;;;0.65;0.65;;;5.50;99.90;;;;;;4439619;32;20443;-67
2022/01/25 11:44:07;;;;;;;5.70;0.80;;;5.60;99.90;;;;;;4436774;32;20128;-71
2022/01/25 11:46:33;;;;;;;0.90;0.90;;;5.70;99.90;;;;;;4431535;32;20085;-66
2022/01/25 11:49:04;;;;;;;1.40;0.65;;;5.70;99.90;;;;;;4430789;32;20109;-67
2022/01/25 11:51:29;;;;;;;0.75;0.75;;;5.60;99.90;;;;;;4432425;32;20052;-66
2022/01/25 11:53:55;;;;;;;6.43;1.40;;;5.50;99.90;;;;;;4425659;32;20583;-66
2022/01/25 11:56:20;;;;;;;1.33;0.88;;;5.40;99.90;;;;;;4423046;32;20568;-66
2022/01/25 11:58:55;;;;;;;2.30;1.12;;;5.40;99.90;;;;;;4426732;32;20143;-66
2022/01/25 12:01:25;;;;;;;4.32;1.25;;;5.40;99.90;;;;;;4430969;32;20458;-66
2022/01/25 12:03:56;;;;;;;0.60;0.60;;;5.40;99.90;;;;;;4431436;32;20192;-66
2022/01/25 12:06:28;;;;;;;1.67;1.25;;;5.40;99.90;;;;;;4426591;32;20519;-66
2022/01/25 12:10:11;;;;;;;17.10;1.17;;;5.50;99.90;;;;;;4434270;32;20167;-66
2022/01/25 12:12:01;;;;;;;0.47;0.47;;;5.60;99.90;;;;;;4425582;32;20086;-66
2022/01/25 12:14:32;;;;;;;3.00;1.02;;;5.60;99.90;;;;;;4428293;32;20135;-66
2022/01/25 12:17:10;;;;;;;12.20;0.88;;;5.50;99.90;;;;;;4430011;32;20114;-66
2022/01/25 12:19:46;;;;;;;0.77;0.77;;;5.60;99.90;;;;;;4422752;32;20097;-66
2022/01/25 12:22:16;;;;;;;0.73;0.70;;;5.60;99.90;;;;;;4428230;32;20096;-66
2022/01/25 12:24:52;;;;;;;0.60;0.60;;;5.60;99.90;;;;;;4432434;32;21061;-66
2022/01/25 12:27:33;;;;;;;1.70;0.98;;;5.60;99.90;;;;;;4428298;32;20155;-67
2022/01/25 12:29:59;;;;;;;;;;;5.70;99.90;;;;;;4429514;32;20066;-67
2022/01/25 12:32:32;;;;;;;0.40;0.40;;;5.70;99.90;;;;;;4431407;32;19955;-68
2022/01/25 12:35:05;;;;;;;0.80;0.65;;;5.80;99.90;;;;;;4433325;32;20066;-67
2022/01/25 12:37:54;;;;;;;0.73;0.73;;;5.80;99.90;;;;;;4428372;32;20196;-67
2022/01/25 12:40:29;;;;;;;0.55;0.55;;;5.70;99.90;;;;;;4426067;32;20177;-65
2022/01/25 12:42:59;;;;;;;1.23;0.73;;;5.80;99.90;;;;;;4427013;32;20353;-66
2022/01/25 12:45:27;;;;;;;2.42;1.90;;;5.70;99.90;;;;;;4427850;32;20089;-66
2022/01/25 12:48:00;;;;;;;0.85;0.85;;;5.70;99.90;;;;;;4427953;32;20446;-66
2022/01/25 12:50:26;;;;;;;1.02;0.70;;;5.70;99.90;;;;;;4428213;32;20112;-65
2022/01/25 12:52:52;;;;;;;0.50;0.50;;;5.60;99.90;;;;;;4429490;32;20494;-66
2022/01/25 12:55:26;;;;;;;0.50;0.50;;;5.60;99.90;;;;;;4429634;32;20436;-66
2022/01/25 12:57:53;;;;;;;7.18;2.20;;;5.60;99.90;;;;;;4430406;32;20057;-67
2022/01/25 13:00:21;;;;;;;1.77;0.70;;;5.60;99.90;;;;;;4428298;32;20090;-66
2022/01/25 13:05:58;;;;;;;1.65;0.85;;;5.60;99.90;;;;;;4424932;32;20172;-67
2022/01/25 13:06:16;;;;;;;0.43;0.43;;;5.70;99.90;;;;;;4409979;32;20125;-67
2022/01/25 13:08:51;;;;;;;0.98;0.98;;;5.70;99.90;;;;;;4428225;32;20084;-67
2022/01/25 13:11:30;;;;;;;0.90;0.73;;;5.80;99.90;;;;;;4424785;32;20106;-67
2022/01/25 13:14:15;;;;;;;1.15;0.77;;;5.80;99.90;;;;;;4428077;32;20089;-67
2022/01/25 13:16:44;;;;;;;0.85;0.60;;;5.80;99.90;;;;;;4427902;32;20065;-67
2022/01/25 13:19:11;;;;;;;1.45;1.05;;;5.80;99.90;;;;;;4429981;32;20081;-67
2022/01/25 13:21:41;;;;;;;0.55;0.55;;;5.80;99.90;;;;;;4431908;32;20523;-67
2022/01/25 13:24:09;;;;;;;0.75;0.75;;;5.80;99.90;;;;;;4432870;32;20660;-67
2022/01/25 13:26:39;;;;;;;1.45;1.35;;;5.80;99.90;;;;;;4429638;32;20078;-67
2022/01/25 13:30:40;;;;;;;0.85;0.85;;;5.80;99.90;;;;;;4425927;32;20155;-67
2022/01/25 13:32:11;;;;;;;5.72;1.02;;;5.80;99.90;;;;;;4426228;32;20423;-67
2022/01/25 13:34:37;;;;;;;1.77;0.65;;;5.70;99.90;;;;;;4420770;32;20093;-67
2022/01/25 13:37:03;;;;;;;2.58;1.95;;;5.70;99.90;;;;;;4418856;32;20116;-67
2022/01/25 13:39:29;;;;;;;2.37;1.12;;;5.80;99.90;;;;;;4412258;32;20140;-67
2022/01/25 13:42:04;;;;;;;1.37;0.95;;;5.70;99.90;;;;;;4410405;32;20081;-67
2022/01/25 13:45:46;;;;;;;5.45;1.45;;;5.80;99.90;;;;;;4411041;32;20685;-67
2022/01/25 13:47:15;;;;;;;3.87;1.87;;;5.80;99.90;;;;;;4394157;32;20132;-67
2022/01/25 13:49:41;;;;;;;3.22;1.48;;;5.70;99.90;;;;;;4415665;32;20069;-67
2022/01/25 13:52:06;;;;;;;0.77;0.77;;;5.70;99.90;;;;;;4417108;32;20270;-67
2022/01/25 13:54:32;;;;;;;2.58;1.60;;;5.70;99.90;;;;;;4418610;32;20049;-67
2022/01/25 13:57:05;;;;;;;0.40;0.40;;;5.60;99.90;;;;;;4414868;32;20109;-67
2022/01/25 13:59:31;;;;;;;3.72;1.15;;;5.60;99.90;;;;;;4418117;32;20136;-66
2022/01/25 14:01:57;;;;;;;4.57;1.55;;;5.70;99.90;;;;;;4417336;32;20089;-68
2022/01/25 14:04:28;;;;;;;1.40;0.75;;;5.60;99.90;;;;;;4416745;32;20061;-68
2022/01/25 14:06:55;;;;;;;1.05;1.00;;;5.70;99.90;;;;;;4402957;32;20066;-68
2022/01/25 14:09:28;;;;;;;2.25;1.83;;;5.60;99.90;;;;;;4419786;32;20057;-68
2022/01/25 14:22:45;;;;;;;1.05;0.98;;;5.70;99.90;;;;;;4414402;32;20058;-67